Lower Valley, Nevada
Current Conditions -  °F | °C
As of 3:53 AM on Monday 22 Dec 2014 (Local Time) from KLOL Reporting Station
Clear Clear  
Wind Chill: 35°   Ceiling: Unl
Heat Index: 39°   Visibility: 10mi
Dew Point: 34°   Wind: 6mph
Humidity: 82%   Direction: 90°E
Pressure: 30.19"   Gusts: NA
Location:  40.3545°N, 118.628°W
Report Text: KLOL 221153Z AUTO 09005KT 10SM CLR 04/01 A3019 RMK AO2 SLP220 T00390011 10122 20033 58008
Loading
Personal Weather Stations






























Interactive Weather Map New forecast layout! Learn more

10-Day Weather Forecast

Advertisements
Track Severe Weather on mobile